Johnson, Minnesota
Current Conditions -  °F | °C
As of 11:56 AM on Thursday 30 Oct 2014 (Local Time) from KETH Reporting Station
Haze Haze  
Wind Chill: 32°   Ceiling: 600
Heat Index: 39°   Visibility: 4mi
Dew Point: 37°   Wind: 13mph
Humidity: 93%   Direction: 340°NNW
Pressure: 30.2"   Gusts: 18mph
Location:  45.6628°N, 96.4177°W
Report Text: KETH 301656Z AUTO 34011G16KT 4SM BR OVC006 04/03 A3020 RMK AO2
Loading
Personal Weather Stations






























Interactive Weather Map
Tropical Storm Tracking
New forecast layout! Learn more

10-Day Weather Forecast

Advertisements
Track Severe Weather on mobile